Terminal Aerodrome Forecast
Issued by NWS

Home | Current Version | Previous Version | Text Only | Print | Product List | Glossary On
Versions: 1 2 3 4 5 6 7 8 9 10 11 12 13 14 15
000
FTUS45 KABQ 230136 AAB
TAFFMN
TAF AMD
KFMN 230136Z 2302/2324 13013KT P6SM VCTS SCT060CB BKN100
      TEMPO 2302/2303 VRB20G32KT -TSRA BKN060CB
     FM230300 25008KT P6SM SCT060 BKN120
     FM230600 27006KT P6SM SCT120
     FM231200 VRB04KT P6SM SKC=

USA.gov is the U.S. government's official web portal to all federal, state and local government web resources and services.